Time;durP1;ratioP1;P1;durP2;ratioP2;P2;SDS_P1;SDS_P2;PMS_P1;PMS_P2;Temp;Humidity;BMP_temperature;BMP_pressure;BME280_temperature;BME280_humidity;BME280_pressure;Samples;Min_cycle;Max_cycle;Signal;HPM_P1;HPM_P2
2023/05/22 00:00:13;;;;;;;9.25;5.18;;;18.70;99.90;;;;;;5033200;28;20266;-83
2023/05/22 00:02:41;;;;;;;6.50;5.00;;;18.80;99.90;;;;;;5032070;28;20179;-84
2023/05/22 00:05:12;;;;;;;7.40;4.65;;;18.70;99.90;;;;;;5032329;28;20613;-83
2023/05/22 00:07:38;;;;;;;9.95;5.38;;;18.70;99.90;;;;;;5033529;28;20645;-83
2023/05/22 00:10:05;;;;;;;10.70;5.10;;;18.70;99.90;;;;;;5034741;28;20511;-83
2023/05/22 00:12:31;;;;;;;7.00;4.95;;;18.70;99.90;;;;;;5037375;28;20174;-83
2023/05/22 00:14:57;;;;;;;5.88;4.40;;;18.70;99.90;;;;;;5036935;28;20632;-83
2023/05/22 00:17:25;;;;;;;9.10;4.85;;;18.70;99.90;;;;;;5037499;28;20178;-84
2023/05/22 00:19:55;;;;;;;7.25;4.90;;;18.70;99.90;;;;;;5037717;28;20162;-84
2023/05/22 00:22:21;;;;;;;8.18;4.75;;;18.70;99.90;;;;;;5037309;28;20159;-83
2023/05/22 00:24:47;;;;;;;7.00;4.75;;;18.70;99.90;;;;;;5037469;28;20257;-83
2023/05/22 00:27:12;;;;;;;6.55;4.63;;;18.60;99.90;;;;;;5037433;28;20202;-84
2023/05/22 00:29:38;;;;;;;7.82;4.78;;;18.60;99.90;;;;;;5037034;28;20502;-84
2023/05/22 00:32:05;;;;;;;7.35;4.75;;;18.60;99.90;;;;;;5035658;28;20284;-86
2023/05/22 00:37:11;;;;;;;5.68;5.00;;;18.50;99.90;;;;;;5271803;22;20238;-84
2023/05/22 00:39:37;;;;;;;7.03;4.72;;;18.50;99.90;;;;;;5035819;28;20183;-84
2023/05/22 00:42:03;;;;;;;9.68;4.70;;;18.50;99.90;;;;;;5036844;28;20174;-85
2023/05/22 00:44:29;;;;;;;8.27;4.55;;;18.50;99.90;;;;;;5044862;28;20201;-84
2023/05/22 00:46:55;;;;;;;6.18;4.72;;;18.40;99.90;;;;;;5055592;28;20532;-82
2023/05/22 00:49:21;;;;;;;10.23;4.60;;;18.40;99.90;;;;;;5055389;28;20189;-81
2023/05/22 00:51:48;;;;;;;6.72;4.68;;;18.30;99.90;;;;;;5042942;28;20174;-82
2023/05/22 00:54:15;;;;;;;8.07;4.78;;;18.30;99.90;;;;;;5036807;28;20519;-82
2023/05/22 00:56:41;;;;;;;6.30;5.25;;;18.30;99.90;;;;;;5035317;28;20297;-82
2023/05/22 00:59:07;;;;;;;6.38;4.72;;;18.30;99.90;;;;;;5035255;28;20178;-81
2023/05/22 01:01:40;;;;;;;7.13;4.78;;;18.20;99.90;;;;;;5036666;28;20625;-82
2023/05/22 01:04:10;;;;;;;8.35;4.82;;;18.20;99.90;;;;;;5036867;28;20663;-82
2023/05/22 01:06:37;;;;;;;7.75;4.90;;;18.20;99.90;;;;;;5035674;28;20253;-82
2023/05/22 01:09:03;;;;;;;7.63;5.00;;;18.20;99.90;;;;;;5036319;28;20181;-82
2023/05/22 01:11:56;;;;;;;8.15;5.25;;;18.20;99.90;;;;;;5035105;28;20178;-82
2023/05/22 01:14:51;;;;;;;6.78;4.93;;;18.20;99.90;;;;;;5036504;28;20512;-82
2023/05/22 01:17:51;;;;;;;9.35;5.07;;;18.20;99.90;;;;;;5036537;28;20228;-84
2023/05/22 01:20:39;;;;;;;5.15;4.40;;;18.10;99.90;;;;;;5036384;28;20521;-83
2023/05/22 01:23:47;;;;;;;5.68;4.53;;;18.00;99.90;;;;;;5036237;28;20520;-83
2023/05/22 01:26:31;;;;;;;9.77;4.75;;;18.00;99.90;;;;;;5035148;28;20191;-82
2023/05/22 01:29:07;;;;;;;8.68;4.82;;;18.10;99.90;;;;;;5036507;28;20177;-85
2023/05/22 01:31:38;;;;;;;7.65;5.10;;;18.10;99.90;;;;;;5034969;28;20177;-81
2023/05/22 01:34:06;;;;;;;7.90;4.80;;;18.00;99.90;;;;;;5035976;28;20167;-82
2023/05/22 01:36:35;;;;;;;7.18;5.00;;;18.00;99.90;;;;;;5035462;28;20226;-83
2023/05/22 01:39:04;;;;;;;9.20;4.70;;;18.00;99.90;;;;;;5034744;28;20181;-85
2023/05/22 01:41:32;;;;;;;9.35;5.20;;;18.00;99.90;;;;;;5034933;28;20174;-82
2023/05/22 01:43:59;;;;;;;7.85;4.90;;;17.90;99.90;;;;;;5035106;28;20574;-82
2023/05/22 01:46:29;;;;;;;6.18;4.80;;;17.90;99.90;;;;;;5035853;28;20198;-82
2023/05/22 01:48:55;;;;;;;7.32;4.65;;;17.90;99.90;;;;;;5036026;28;20481;-83
2023/05/22 01:51:27;;;;;;;11.05;4.80;;;17.90;99.90;;;;;;5034317;28;20262;-81
2023/05/22 01:54:17;;;;;;;6.85;5.03;;;17.80;99.90;;;;;;5035919;28;20189;-83
2023/05/22 01:57:14;;;;;;;7.72;5.25;;;17.80;99.90;;;;;;5034315;28;20680;-81
2023/05/22 01:59:58;;;;;;;11.45;4.53;;;17.80;99.90;;;;;;5035827;28;20170;-82
2023/05/22 02:02:26;;;;;;;7.15;5.05;;;17.70;99.90;;;;;;5035705;28;20598;-85
2023/05/22 02:04:57;;;;;;;8.65;4.78;;;17.70;99.90;;;;;;5035629;28;20265;-81
2023/05/22 02:07:24;;;;;;;6.72;5.13;;;17.70;99.90;;;;;;5035265;28;20171;-86
2023/05/22 02:09:52;;;;;;;5.10;4.60;;;17.60;99.90;;;;;;5034035;28;20372;-85
2023/05/22 02:12:19;;;;;;;9.18;4.90;;;17.70;99.90;;;;;;5035413;28;20194;-82
2023/05/22 02:14:45;;;;;;;7.00;5.00;;;17.70;99.90;;;;;;5035429;28;20166;-82
2023/05/22 02:17:11;;;;;;;6.78;4.70;;;17.70;99.90;;;;;;5033799;28;20214;-84
2023/05/22 02:19:37;;;;;;;9.02;4.85;;;17.70;99.90;;;;;;5035300;28;20167;-87
2023/05/22 02:22:03;;;;;;;6.72;4.72;;;17.60;99.90;;;;;;5034483;28;20205;-82
2023/05/22 02:24:30;;;;;;;11.88;4.53;;;17.60;99.90;;;;;;5034686;28;20190;-82
2023/05/22 02:26:56;;;;;;;5.50;4.57;;;17.60;99.90;;;;;;5035403;28;20177;-83
2023/05/22 02:29:23;;;;;;;5.90;4.68;;;17.50;99.90;;;;;;5034042;28;20220;-82
2023/05/22 02:31:48;;;;;;;8.65;4.70;;;17.50;99.90;;;;;;5033887;28;20178;-85
2023/05/22 02:34:14;;;;;;;8.60;4.85;;;17.50;99.90;;;;;;5034638;28;20178;-84
2023/05/22 02:36:40;;;;;;;5.85;4.78;;;17.50;99.90;;;;;;5034586;28;20371;-84
2023/05/22 02:39:08;;;;;;;14.35;5.00;;;17.50;99.90;;;;;;5035127;28;20175;-86
2023/05/22 02:41:34;;;;;;;6.63;4.63;;;17.50;99.90;;;;;;5034223;28;20257;-88
2023/05/22 02:43:59;;;;;;;8.45;4.40;;;17.50;99.90;;;;;;5033734;28;20321;-90
2023/05/22 02:46:25;;;;;;;5.88;4.75;;;17.40;99.90;;;;;;5035205;28;20559;-90
2023/05/22 02:48:52;;;;;;;6.65;5.25;;;17.40;99.90;;;;;;5034008;28;20174;-84
2023/05/22 02:51:18;;;;;;;6.85;4.82;;;17.40;99.90;;;;;;5033298;28;20179;-86
2023/05/22 02:53:43;;;;;;;8.95;5.20;;;17.40;99.90;;;;;;5033575;28;20185;-88
2023/05/22 02:56:10;;;;;;;8.32;4.82;;;17.40;99.90;;;;;;5034999;28;20206;-86
2023/05/22 02:58:38;;;;;;;6.38;4.57;;;17.30;99.90;;;;;;5033922;28;20178;-86
2023/05/22 03:01:07;;;;;;;10.88;4.93;;;17.30;99.90;;;;;;5034886;28;20179;-88
2023/05/22 03:03:33;;;;;;;7.40;5.43;;;17.30;99.90;;;;;;5033657;28;20178;-86
2023/05/22 03:06:00;;;;;;;7.00;4.53;;;17.30;99.90;;;;;;5034394;28;20171;-84
2023/05/22 03:08:31;;;;;;;6.70;4.72;;;17.20;99.90;;;;;;5033528;28;20269;-84
2023/05/22 03:11:01;;;;;;;10.32;4.88;;;17.20;99.90;;;;;;5034654;28;20186;-85
2023/05/22 03:13:26;;;;;;;5.13;4.63;;;17.20;99.90;;;;;;5034466;28;20174;-89
2023/05/22 03:15:52;;;;;;;9.27;4.32;;;17.20;99.90;;;;;;5034817;28;20216;-85
2023/05/22 03:18:19;;;;;;;6.43;4.63;;;17.20;99.90;;;;;;5034162;28;20193;-86
2023/05/22 03:20:44;;;;;;;7.90;4.43;;;17.10;99.90;;;;;;5033170;28;20174;-90
2023/05/22 03:23:11;;;;;;;5.75;4.32;;;17.10;99.90;;;;;;5034202;28;20620;-86
2023/05/22 03:25:37;;;;;;;6.45;4.72;;;17.10;99.90;;;;;;5034041;28;20706;-85
2023/05/22 03:28:03;;;;;;;9.43;5.25;;;17.00;99.90;;;;;;5034313;28;20182;-86
2023/05/22 03:30:29;;;;;;;6.90;4.70;;;17.00;99.90;;;;;;5032865;28;20170;-85
2023/05/22 03:32:55;;;;;;;7.13;4.55;;;17.10;99.90;;;;;;5033875;28;20186;-86
2023/05/22 03:35:21;;;;;;;8.82;4.53;;;17.00;99.90;;;;;;5033886;28;20213;-85
2023/05/22 03:37:47;;;;;;;6.40;4.40;;;17.00;99.90;;;;;;5032173;28;20245;-85
2023/05/22 03:40:13;;;;;;;6.55;4.68;;;16.90;99.90;;;;;;5033777;28;20175;-84
2023/05/22 03:42:38;;;;;;;8.10;4.78;;;16.90;99.90;;;;;;5032665;28;20224;-85
2023/05/22 03:45:05;;;;;;;7.85;4.80;;;16.90;99.90;;;;;;5032873;28;20490;-84
2023/05/22 03:47:30;;;;;;;6.53;4.80;;;16.90;99.90;;;;;;5033769;28;20179;-85
2023/05/22 03:49:56;;;;;;;8.57;4.47;;;16.90;99.90;;;;;;5033725;28;20166;-84
2023/05/22 03:52:22;;;;;;;10.95;4.88;;;16.90;99.90;;;;;;5033448;28;20177;-83
2023/05/22 03:54:48;;;;;;;5.63;4.10;;;16.90;99.90;;;;;;5033633;28;20186;-84
2023/05/22 03:57:15;;;;;;;7.22;4.82;;;16.90;99.90;;;;;;5032393;28;20255;-85
2023/05/22 03:59:41;;;;;;;11.32;5.00;;;16.90;99.90;;;;;;5032377;28;20218;-83
2023/05/22 04:02:06;;;;;;;5.10;4.60;;;16.90;99.90;;;;;;5033372;28;20193;-84
2023/05/22 04:04:37;;;;;;;10.77;4.68;;;16.80;99.90;;;;;;5033603;28;20507;-84
2023/05/22 04:07:07;;;;;;;8.70;4.63;;;16.80;99.90;;;;;;5033832;28;20616;-84
2023/05/22 04:09:34;;;;;;;7.88;4.60;;;16.80;99.90;;;;;;5033430;28;20186;-84
2023/05/22 04:12:01;;;;;;;8.57;4.60;;;16.80;99.90;;;;;;5033604;28;20617;-84
2023/05/22 04:14:27;;;;;;;9.05;4.63;;;16.80;99.90;;;;;;5032119;28;20210;-82
2023/05/22 04:16:53;;;;;;;7.72;4.47;;;16.90;99.90;;;;;;5033265;28;20548;-84
2023/05/22 04:19:19;;;;;;;5.63;4.28;;;16.90;99.90;;;;;;5033429;28;20167;-84
2023/05/22 04:21:46;;;;;;;7.45;4.57;;;16.90;99.90;;;;;;5032012;28;20171;-83
2023/05/22 04:24:12;;;;;;;5.03;4.22;;;16.90;99.90;;;;;;5033383;28;20226;-84
2023/05/22 04:26:38;;;;;;;6.85;5.03;;;16.90;99.90;;;;;;5032285;28;20178;-84
2023/05/22 04:29:09;;;;;;;5.45;4.10;;;17.00;99.90;;;;;;5033338;28;20174;-84
2023/05/22 04:31:35;;;;;;;4.88;4.38;;;17.00;99.90;;;;;;5031982;28;20179;-85
2023/05/22 04:34:02;;;;;;;5.05;4.28;;;17.00;99.90;;;;;;5033161;28;20182;-83
2023/05/22 04:36:29;;;;;;;6.68;4.63;;;17.00;99.90;;;;;;5032750;28;20241;-84
2023/05/22 04:38:55;;;;;;;6.03;4.25;;;17.10;99.90;;;;;;5033447;28;20202;-83
2023/05/22 04:41:25;;;;;;;6.15;4.60;;;17.20;99.90;;;;;;5031923;28;20206;-84
2023/05/22 04:43:51;;;;;;;6.93;4.20;;;17.20;99.90;;;;;;5032378;28;20189;-84
2023/05/22 04:46:18;;;;;;;9.02;4.50;;;17.20;99.90;;;;;;5031136;28;20175;-85
2023/05/22 04:48:44;;;;;;;8.60;4.20;;;17.30;99.90;;;;;;5032755;28;20175;-84
2023/05/22 04:51:11;;;;;;;6.25;4.15;;;17.30;99.90;;;;;;5032721;28;20692;-84
2023/05/22 04:53:37;;;;;;;4.90;4.30;;;17.40;99.90;;;;;;5031476;28;20171;-83
2023/05/22 04:56:04;;;;;;;5.20;4.45;;;17.50;99.90;;;;;;5034108;28;20213;-83
2023/05/22 04:58:29;;;;;;;6.93;4.80;;;17.50;99.90;;;;;;5036737;28;20170;-83
2023/05/22 05:00:56;;;;;;;5.70;4.43;;;17.60;99.90;;;;;;5038166;28;20185;-83
2023/05/22 05:03:24;;;;;;;8.60;4.20;;;17.60;99.90;;;;;;5035450;28;20186;-84
2023/05/22 05:05:50;;;;;;;4.93;4.10;;;17.60;99.90;;;;;;5036009;28;20621;-84
2023/05/22 05:08:16;;;;;;;4.78;4.20;;;17.70;99.90;;;;;;5035601;28;20185;-84
2023/05/22 05:10:42;;;;;;;8.23;4.38;;;17.70;99.90;;;;;;5035675;28;20174;-84
2023/05/22 05:13:08;;;;;;;5.95;4.10;;;17.80;99.90;;;;;;5035557;28;20648;-83
2023/05/22 05:15:34;;;;;;;4.28;3.88;;;17.80;99.90;;;;;;5035593;28;20206;-85
2023/05/22 05:18:00;;;;;;;6.63;4.28;;;17.90;99.90;;;;;;5035275;28;20282;-84
2023/05/22 05:20:26;;;;;;;6.10;4.07;;;17.90;99.90;;;;;;5036435;28;20171;-83
2023/05/22 05:22:52;;;;;;;6.80;4.25;;;17.90;99.90;;;;;;5034893;28;20265;-84
2023/05/22 05:25:18;;;;;;;5.93;4.45;;;17.90;99.90;;;;;;5035078;28;20187;-85
2023/05/22 05:27:43;;;;;;;9.90;4.57;;;17.90;99.90;;;;;;5036309;28;20181;-84
2023/05/22 05:30:09;;;;;;;5.60;3.90;;;17.90;99.90;;;;;;5036320;28;20202;-84
2023/05/22 05:32:35;;;;;;;6.20;4.40;;;17.80;99.90;;;;;;5036199;28;20159;-83
2023/05/22 05:35:01;;;;;;;6.40;4.18;;;17.90;99.90;;;;;;5036104;28;20175;-83
2023/05/22 05:37:27;;;;;;;6.88;4.28;;;17.90;99.90;;;;;;5035976;28;20230;-84
2023/05/22 05:39:54;;;;;;;5.40;4.00;;;17.90;99.90;;;;;;5035927;28;20241;-87
2023/05/22 05:42:19;;;;;;;7.90;4.70;;;18.00;99.90;;;;;;5034809;28;20189;-86
2023/05/22 05:44:45;;;;;;;7.00;4.55;;;18.00;99.90;;;;;;5035242;28;20175;-84
2023/05/22 05:47:11;;;;;;;6.10;4.47;;;18.00;99.90;;;;;;5036064;28;20171;-85
2023/05/22 05:49:36;;;;;;;8.20;4.57;;;18.10;99.90;;;;;;5035962;28;20574;-83
2023/05/22 05:52:03;;;;;;;5.03;4.03;;;18.10;99.90;;;;;;5035756;28;20609;-85
2023/05/22 05:54:29;;;;;;;8.82;4.47;;;18.10;99.90;;;;;;5034319;28;20273;-83
2023/05/22 05:56:55;;;;;;;9.38;4.70;;;18.10;99.90;;;;;;5034299;28;20305;-84
2023/05/22 05:59:21;;;;;;;9.23;4.28;;;18.10;99.90;;;;;;5035714;28;20175;-83
2023/05/22 06:01:48;;;;;;;11.35;4.32;;;18.10;99.90;;;;;;5035793;28;20175;-83
2023/05/22 06:04:14;;;;;;;9.55;4.93;;;18.10;99.90;;;;;;5035798;28;20159;-84
2023/05/22 06:06:41;;;;;;;5.28;4.43;;;18.10;99.90;;;;;;5033447;28;20182;-84
2023/05/22 06:09:08;;;;;;;7.72;4.60;;;18.20;99.90;;;;;;5034815;28;20507;-84
2023/05/22 06:11:34;;;;;;;6.43;4.30;;;18.30;99.90;;;;;;5034087;28;20585;-84
2023/05/22 06:14:03;;;;;;;6.13;4.53;;;18.40;99.90;;;;;;5035747;28;20266;-84
2023/05/22 06:16:29;;;;;;;5.70;4.22;;;18.50;99.90;;;;;;5035709;28;20233;-86
2023/05/22 06:18:57;;;;;;;7.65;4.22;;;18.50;99.90;;;;;;5035632;28;20516;-90
2023/05/22 06:21:23;;;;;;;4.35;3.95;;;18.60;99.90;;;;;;5034156;28;20178;-84
2023/05/22 06:23:49;;;;;;;6.68;4.15;;;18.60;99.90;;;;;;5033825;28;20174;-83
2023/05/22 06:26:16;;;;;;;5.45;3.80;;;18.50;99.90;;;;;;5035286;28;20171;-84
2023/05/22 06:28:42;;;;;;;5.65;4.03;;;18.60;99.90;;;;;;5035549;28;20193;-84
2023/05/22 06:31:08;;;;;;;8.35;3.92;;;18.60;99.90;;;;;;5035401;28;20178;-85
2023/05/22 06:33:39;;;;;;;9.90;4.78;;;18.80;99.90;;;;;;5035083;28;20171;-85
2023/05/22 06:36:06;;;;;;;11.30;4.43;;;18.80;99.90;;;;;;5034928;28;20222;-88
2023/05/22 06:38:31;;;;;;;6.53;3.95;;;18.90;99.90;;;;;;5035391;28;20151;-84
2023/05/22 06:40:58;;;;;;;8.00;4.35;;;19.00;99.90;;;;;;5034191;28;20224;-87
2023/05/22 06:43:24;;;;;;;5.97;4.43;;;19.00;99.90;;;;;;5035391;28;20558;-93
2023/05/22 06:45:50;;;;;;;10.60;4.68;;;19.00;99.90;;;;;;5015221;28;20187;-85
2023/05/22 06:48:16;;;;;;;6.35;4.45;;;19.10;99.90;;;;;;5015638;28;20232;-87
2023/05/22 06:50:41;;;;;;;8.10;4.25;;;19.10;99.90;;;;;;5015532;28;20515;-85
2023/05/22 06:53:07;;;;;;;9.85;4.07;;;19.10;99.90;;;;;;5014728;28;20185;-85
2023/05/22 06:55:33;;;;;;;12.02;4.90;;;19.20;99.90;;;;;;5015515;28;20264;-86
2023/05/22 06:57:59;;;;;;;6.78;4.00;;;19.30;99.90;;;;;;5016107;28;20179;-90
2023/05/22 07:00:24;;;;;;;5.53;4.00;;;19.40;99.90;;;;;;5015093;28;20250;-84
2023/05/22 07:02:50;;;;;;;5.75;4.47;;;19.50;99.90;;;;;;5014811;28;20171;-84
2023/05/22 07:05:16;;;;;;;7.65;4.32;;;19.60;99.90;;;;;;5014529;28;20673;-85
2023/05/22 07:07:43;;;;;;;6.97;4.55;;;19.70;99.90;;;;;;5014603;28;20313;-88
2023/05/22 07:10:09;;;;;;;13.13;4.50;;;19.70;99.90;;;;;;5013894;28;20261;-86
2023/05/22 07:12:35;;;;;;;6.38;4.13;;;19.80;99.90;;;;;;5013670;28;20193;-84
2023/05/22 07:15:01;;;;;;;8.38;4.35;;;19.90;99.90;;;;;;5027502;28;20645;-85
2023/05/22 07:17:27;;;;;;;7.00;3.83;;;20.20;99.90;;;;;;5035044;28;20170;-86
2023/05/22 07:19:53;;;;;;;5.82;4.20;;;20.30;99.90;;;;;;5035078;28;20608;-87
2023/05/22 07:22:19;;;;;;;7.43;4.15;;;20.60;99.90;;;;;;5034356;28;20241;-86
2023/05/22 07:24:46;;;;;;;4.75;3.85;;;20.80;99.90;;;;;;5036473;28;20543;-91
2023/05/22 07:27:12;;;;;;;7.70;4.53;;;20.80;98.90;;;;;;5036489;28;20911;-86
2023/05/22 07:29:37;;;;;;;10.40;4.80;;;20.90;99.50;;;;;;5035414;28;20253;-92
2023/05/22 07:32:03;;;;;;;6.45;4.03;;;20.90;99.60;;;;;;5034769;28;20178;-86
2023/05/22 07:34:33;;;;;;;11.10;4.15;;;21.00;99.90;;;;;;5034845;28;20159;-87
2023/05/22 07:37:00;;;;;;;8.27;4.20;;;21.20;99.50;;;;;;5034754;28;20258;-89
2023/05/22 07:39:26;;;;;;;6.38;4.40;;;21.20;98.60;;;;;;5035778;28;20173;-85
2023/05/22 07:41:59;;;;;;;6.45;4.40;;;21.10;99.10;;;;;;5035491;28;20173;-91
2023/05/22 07:44:24;;;;;;;6.60;4.15;;;21.10;99.10;;;;;;5043245;28;20265;-93
2023/05/22 07:46:50;;;;;;;7.53;4.57;;;21.20;98.80;;;;;;5056081;28;20208;-92
2023/05/22 07:49:19;;;;;;;8.32;4.10;;;21.20;99.40;;;;;;5054614;28;20269;-93
2023/05/22 07:51:46;;;;;;;8.13;4.20;;;21.20;99.00;;;;;;5057692;28;20301;-93
2023/05/22 07:54:13;;;;;;;8.65;4.38;;;21.20;98.80;;;;;;5055562;28;20600;-94
2023/05/22 07:56:44;;;;;;;10.57;4.55;;;21.20;98.90;;;;;;5055820;28;20206;-90
2023/05/22 07:59:11;;;;;;;7.78;3.78;;;21.30;99.20;;;;;;5054961;28;20255;-96
2023/05/22 08:01:39;;;;;;;5.88;4.13;;;21.50;98.50;;;;;;5054211;28;20500;-85
2023/05/22 08:04:05;;;;;;;12.55;4.43;;;21.70;98.50;;;;;;5054248;28;20208;-89
2023/05/22 08:06:31;;;;;;;9.10;4.20;;;21.80;98.70;;;;;;5056404;28;20209;-87
2023/05/22 08:08:56;;;;;;;8.40;4.07;;;21.90;97.80;;;;;;5054540;28;20202;-86
2023/05/22 08:11:22;;;;;;;5.88;3.65;;;22.10;98.30;;;;;;5053817;28;20216;-84
2023/05/22 08:13:48;;;;;;;10.43;3.80;;;22.30;97.50;;;;;;5051763;28;20261;-87
2023/05/22 08:16:13;;;;;;;6.68;4.10;;;22.40;98.00;;;;;;5036274;28;20206;-88
2023/05/22 08:18:39;;;;;;;9.60;4.15;;;22.40;98.30;;;;;;5037245;28;20179;-91
2023/05/22 08:21:06;;;;;;;9.55;4.25;;;22.30;97.80;;;;;;5036136;28;20671;-88
2023/05/22 08:23:35;;;;;;;9.73;4.30;;;22.30;98.20;;;;;;5035789;28;20231;-88
2023/05/22 08:26:00;;;;;;;12.07;3.92;;;22.20;98.50;;;;;;5035470;28;20236;-92
2023/05/22 08:28:26;;;;;;;7.35;4.03;;;22.10;98.10;;;;;;5036562;28;20262;-89
2023/05/22 08:30:53;;;;;;;7.00;4.28;;;22.20;98.30;;;;;;5036762;28;20185;-95
2023/05/22 08:33:19;;;;;;;4.72;3.67;;;22.20;97.90;;;;;;5038936;28;20313;-92
2023/05/22 08:35:45;;;;;;;8.15;4.40;;;22.30;98.40;;;;;;5039059;28;20297;-96
2023/05/22 08:38:12;;;;;;;5.78;3.85;;;22.30;98.00;;;;;;5042654;28;20185;-96
2023/05/22 08:40:38;;;;;;;8.25;4.25;;;22.30;97.90;;;;;;5039830;28;20174;-90
2023/05/22 08:43:05;;;;;;;7.97;4.13;;;22.30;97.90;;;;;;5041409;28;20194;-86
2023/05/22 08:45:35;;;;;;;7.85;4.40;;;22.30;97.30;;;;;;5037750;28;20635;-92
2023/05/22 08:48:04;;;;;;;5.18;4.20;;;22.30;98.20;;;;;;5020744;28;20183;-95
2023/05/22 08:50:30;;;;;;;5.30;3.97;;;22.30;98.50;;;;;;5049960;23;20262;-88
2023/05/22 08:53:00;;;;;;;9.05;3.97;;;22.50;98.60;;;;;;5037075;28;20217;-88
2023/05/22 08:55:27;;;;;;;8.05;4.15;;;22.90;98.10;;;;;;5038612;28;20203;-90
2023/05/22 08:57:55;;;;;;;6.32;4.00;;;23.10;96.50;;;;;;5039608;28;20199;-91
2023/05/22 09:00:22;;;;;;;6.97;4.13;;;23.10;96.00;;;;;;5040999;28;20617;-88
2023/05/22 09:02:52;;;;;;;7.57;4.65;;;23.20;97.30;;;;;;5040126;28;20178;-86
2023/05/22 09:05:18;;;;;;;8.25;4.18;;;23.30;96.50;;;;;;5038725;28;20245;-88
2023/05/22 09:07:44;;;;;;;6.13;4.22;;;23.30;96.00;;;;;;5037960;28;20622;-88
2023/05/22 09:10:10;;;;;;;7.60;4.05;;;23.30;96.00;;;;;;5036449;28;20185;-92
2023/05/22 09:12:37;;;;;;;7.97;4.50;;;23.40;95.90;;;;;;5037993;28;20178;-94
2023/05/22 09:15:12;;;;;;;13.32;4.13;;;23.40;95.90;;;;;;5038026;28;20178;-86
2023/05/22 09:17:41;;;;;;;9.80;4.18;;;23.30;96.00;;;;;;5037934;28;20175;-84
2023/05/22 09:20:09;;;;;;;9.63;4.15;;;23.40;96.30;;;;;;5037468;28;20174;-90
2023/05/22 09:22:37;;;;;;;9.05;4.18;;;23.50;96.30;;;;;;5037386;28;20236;-90
2023/05/22 09:25:03;;;;;;;5.28;4.07;;;23.70;96.70;;;;;;5037339;28;20205;-86
2023/05/22 09:27:29;;;;;;;6.95;4.13;;;23.80;95.00;;;;;;5037297;28;20175;-87
2023/05/22 09:29:56;;;;;;;7.28;3.90;;;23.90;96.70;;;;;;5037432;28;20192;-94
2023/05/22 09:32:22;;;;;;;5.10;4.03;;;24.10;95.70;;;;;;5037536;28;20198;-92
2023/05/22 09:34:49;;;;;;;8.57;4.32;;;24.10;96.10;;;;;;5037057;28;20605;-85
2023/05/22 09:37:16;;;;;;;12.68;4.53;;;24.30;96.10;;;;;;5037033;28;20263;-87
2023/05/22 09:39:44;;;;;;;6.90;4.15;;;24.40;95.10;;;;;;5037313;28;20229;-89
2023/05/22 09:42:16;;;;;;;8.32;4.50;;;24.50;95.10;;;;;;5036379;28;20182;-92
2023/05/22 09:44:47;;;;;;;5.78;3.97;;;24.70;94.20;;;;;;5028485;28;20183;-92
2023/05/22 09:47:12;;;;;;;8.68;4.00;;;24.60;94.70;;;;;;5016546;28;20175;-84
2023/05/22 09:49:42;;;;;;;10.77;4.22;;;24.70;95.00;;;;;;5017227;28;20366;-89
2023/05/22 09:52:13;;;;;;;7.85;4.22;;;24.90;94.30;;;;;;5017165;28;20218;-86
2023/05/22 09:54:54;;;;;;;6.43;4.00;;;25.00;95.20;;;;;;5017085;28;20187;-84
2023/05/22 09:57:25;;;;;;;7.80;3.53;;;25.10;95.20;;;;;;5017159;28;20209;-86
2023/05/22 09:59:53;;;;;;;6.43;3.90;;;25.20;95.00;;;;;;5017304;28;20155;-91
2023/05/22 10:02:22;;;;;;;5.43;4.32;;;25.20;94.20;;;;;;5017008;28;20614;-89
2023/05/22 10:04:49;;;;;;;5.20;3.70;;;25.40;94.10;;;;;;5016171;28;20175;-90
2023/05/22 10:07:29;;;;;;;7.28;4.28;;;25.20;92.80;;;;;;5017012;28;20168;-91
2023/05/22 10:10:07;;;;;;;4.97;3.95;;;25.00;93.80;;;;;;5017241;28;20194;-88
2023/05/22 10:12:42;;;;;;;7.38;4.22;;;24.90;94.00;;;;;;5016164;28;20182;-84
2023/05/22 10:15:11;;;;;;;4.97;3.90;;;24.90;94.40;;;;;;5041504;28;20180;-88
2023/05/22 10:17:38;;;;;;;8.05;4.00;;;25.10;94.10;;;;;;5056553;28;20261;-86
2023/05/22 10:20:17;;;;;;;5.18;4.03;;;25.20;94.20;;;;;;5056259;28;20245;-89
2023/05/22 10:22:47;;;;;;;4.32;3.90;;;25.30;94.10;;;;;;5056186;28;20161;-92
2023/05/22 10:25:13;;;;;;;9.48;4.13;;;25.40;93.60;;;;;;5055595;28;20263;-90
2023/05/22 10:27:40;;;;;;;6.30;3.85;;;25.50;93.70;;;;;;5056334;28;20182;-93
2023/05/22 10:30:09;;;;;;;8.10;4.13;;;25.70;94.30;;;;;;5055098;28;20169;-92
2023/05/22 10:33:00;;;;;;;5.32;3.45;;;25.80;92.90;;;;;;5056217;28;20173;-91
2023/05/22 10:35:39;;;;;;;9.23;4.60;;;26.00;92.70;;;;;;5055036;28;20166;-89
2023/05/22 10:38:14;;;;;;;5.45;4.00;;;26.00;92.50;;;;;;5056022;28;20170;-90
2023/05/22 10:40:40;;;;;;;7.25;4.25;;;26.10;92.90;;;;;;5056077;28;20166;-92
2023/05/22 10:43:12;;;;;;;6.65;4.93;;;26.00;92.10;;;;;;5032907;28;20198;-92
2023/05/22 10:45:40;;;;;;;9.63;4.55;;;25.90;92.70;;;;;;5016437;28;20516;-91
2023/05/22 10:48:13;;;;;;;6.95;4.43;;;26.00;92.00;;;;;;5016395;28;20248;-86
2023/05/22 10:50:48;;;;;;;8.77;4.22;;;26.20;91.80;;;;;;5016029;28;20713;-86
2023/05/22 10:53:25;;;;;;;6.45;3.75;;;26.20;91.40;;;;;;5016002;28;20163;-90
2023/05/22 10:55:55;;;;;;;6.47;4.22;;;26.20;92.40;;;;;;5015678;28;20359;-89
2023/05/22 10:58:37;;;;;;;4.90;4.00;;;26.10;91.30;;;;;;5016537;28;20181;-93
2023/05/22 11:01:19;;;;;;;6.22;3.85;;;26.10;91.90;;;;;;5016532;28;20156;-95
2023/05/22 11:03:58;;;;;;;7.22;3.70;;;26.30;91.50;;;;;;5016280;28;20175;-90
2023/05/22 11:06:44;;;;;;;8.35;4.15;;;26.40;91.60;;;;;;5016233;28;20598;-90
2023/05/22 11:09:28;;;;;;;5.45;4.10;;;26.40;91.60;;;;;;5015883;28;20654;-88
2023/05/22 11:12:21;;;;;;;6.75;4.10;;;26.40;91.20;;;;;;5016041;28;20213;-92
2023/05/22 11:14:57;;;;;;;7.03;3.95;;;26.60;92.30;;;;;;5051683;28;20510;-91
2023/05/22 11:17:29;;;;;;;7.22;4.25;;;26.80;91.80;;;;;;5034836;28;20229;-92
2023/05/22 11:20:04;;;;;;;6.47;4.07;;;26.80;91.10;;;;;;5036692;28;20155;-90
2023/05/22 11:22:34;;;;;;;7.57;3.75;;;26.80;91.20;;;;;;5035167;28;20170;-89
2023/05/22 11:25:03;;;;;;;8.85;4.28;;;26.90;91.60;;;;;;5036546;28;20301;-94
2023/05/22 11:27:30;;;;;;;7.50;4.10;;;27.00;91.10;;;;;;5035164;28;20210;-86
2023/05/22 11:29:58;;;;;;;10.18;4.13;;;26.90;91.00;;;;;;5035545;28;20174;-92
2023/05/22 11:32:24;;;;;;;7.45;4.25;;;27.00;92.00;;;;;;5050676;28;20178;-90
2023/05/22 11:34:56;;;;;;;9.77;3.88;;;27.20;91.70;;;;;;5035832;28;20655;-92
2023/05/22 11:37:22;;;;;;;5.13;4.03;;;27.50;91.80;;;;;;5036370;28;20202;-89
2023/05/22 11:39:56;;;;;;;8.68;4.30;;;27.50;90.50;;;;;;5034767;28;20235;-91
2023/05/22 11:42:22;;;;;;;5.40;3.60;;;27.70;90.20;;;;;;5035730;28;20190;-93
2023/05/22 11:44:48;;;;;;;7.55;4.07;;;27.90;91.20;;;;;;5034414;28;20189;-88
2023/05/22 11:47:14;;;;;;;7.85;3.90;;;28.10;90.60;;;;;;5035812;28;20158;-93
2023/05/22 11:49:43;;;;;;;9.20;4.28;;;28.10;89.10;;;;;;5035463;28;20233;-94
2023/05/22 11:52:09;;;;;;;8.48;3.97;;;28.10;88.90;;;;;;5036275;28;20253;-95
2023/05/22 11:54:37;;;;;;;12.27;4.15;;;28.00;90.00;;;;;;5036456;28;20197;-92
2023/05/22 11:57:05;;;;;;;5.03;3.70;;;27.80;89.40;;;;;;5035695;28;20233;-87
2023/05/22 11:59:31;;;;;;;6.97;3.78;;;27.80;90.20;;;;;;5034492;28;20182;-89
2023/05/22 12:01:58;;;;;;;7.85;3.83;;;27.90;89.70;;;;;;5033316;28;20190;-85
2023/05/22 12:04:25;;;;;;;6.00;3.60;;;28.10;91.10;;;;;;5034803;28;20166;-90
2023/05/22 12:06:52;;;;;;;5.45;3.50;;;28.30;89.90;;;;;;5034356;28;20173;-91
2023/05/22 12:09:19;;;;;;;6.10;3.50;;;28.30;87.70;;;;;;5034765;28;20555;-86
2023/05/22 12:11:46;;;;;;;7.15;4.10;;;28.50;91.10;;;;;;5034626;28;20213;-89
2023/05/22 12:14:12;;;;;;;6.50;3.92;;;28.50;90.50;;;;;;5031031;28;20210;-82
2023/05/22 12:16:38;;;;;;;6.05;3.90;;;28.50;88.50;;;;;;5015010;28;20209;-90
2023/05/22 12:19:08;;;;;;;5.60;3.63;;;28.20;86.60;;;;;;5014004;28;20200;-84
2023/05/22 12:21:35;;;;;;;6.22;3.90;;;28.00;86.80;;;;;;5030273;28;20183;-85
2023/05/22 12:24:06;;;;;;;6.85;3.80;;;27.90;88.00;;;;;;5013411;28;20221;-91
2023/05/22 12:26:32;;;;;;;7.43;3.78;;;27.90;90.30;;;;;;5014516;28;20175;-85
2023/05/22 12:28:58;;;;;;;5.43;3.70;;;27.70;88.90;;;;;;5014832;28;20175;-91
2023/05/22 12:31:24;;;;;;;7.75;4.03;;;27.50;89.60;;;;;;5014645;28;20206;-93
2023/05/22 12:33:54;;;;;;;5.60;4.10;;;27.60;90.80;;;;;;5015066;28;20175;-88
2023/05/22 12:36:21;;;;;;;12.23;5.03;;;27.50;90.20;;;;;;5015026;28;20198;-91
2023/05/22 12:38:46;;;;;;;5.45;4.05;;;27.50;89.70;;;;;;5014536;28;20185;-90
2023/05/22 12:41:12;;;;;;;10.10;4.35;;;27.40;90.00;;;;;;5013811;28;20499;-92
2023/05/22 12:43:39;;;;;;;10.55;4.05;;;27.50;89.40;;;;;;5029692;28;20190;-87
2023/05/22 12:46:05;;;;;;;8.23;3.72;;;27.70;89.40;;;;;;5014482;28;20530;-87
2023/05/22 12:48:30;;;;;;;7.80;4.30;;;28.00;90.20;;;;;;5013726;28;20183;-91
2023/05/22 12:50:56;;;;;;;7.85;3.78;;;28.30;89.20;;;;;;5014346;28;20258;-91
2023/05/22 12:53:22;;;;;;;9.90;3.67;;;28.40;88.10;;;;;;5014259;28;20253;-87